ETD541 OMAA-LTFM
Flight info
| Callsign | ETD541 |
|---|---|
| Flight time | N/A |
| Altitude | 32000 |
| Route | DAXIB1G DAXIB Q563 UKUVO G462 TUMAK L602 TASMI UL602 GADSI |
| Aircraft | A321/M-V/N |
Departure
| Time | 2026-05-06 10:48 |
|---|---|
| Airport | Zayed International Airport (OMAA) |
Arrival
| Time | N/A |
|---|---|
| Airport | İstanbul Airport (LTFM) |
| Time | Latitude | Longitude | Altitude | Speed | Heading |
|---|---|---|---|---|---|
| 2026-05-06 10:09 | 24.44829 | 54.63623 | 69 ft | 0 kts | 44° |
| 2026-05-06 10:36 | 24.44819 | 54.63613 | 76 ft | 4 kts | 43° |
| 2026-05-06 10:36 | 24.44799 | 54.63592 | 56 ft | 4 kts | 44° |
| 2026-05-06 10:37 | 24.44781 | 54.63573 | 67 ft | 3 kts | 51° |
| 2026-05-06 10:37 | 24.44771 | 54.63556 | 73 ft | 2 kts | 76° |
| 2026-05-06 10:37 | 24.44769 | 54.63541 | 73 ft | 2 kts | 105° |
| 2026-05-06 10:37 | 24.44775 | 54.63525 | 76 ft | 3 kts | 131° |
| 2026-05-06 10:38 | 24.44786 | 54.63513 | 67 ft | 3 kts | 144° |
| 2026-05-06 10:38 | 24.44766 | 54.63531 | 70 ft | 3 kts | 136° |
| 2026-05-06 10:38 | 24.44758 | 54.63541 | 75 ft | 2 kts | 132° |
| 2026-05-06 10:38 | 24.44755 | 54.63544 | 76 ft | 0 kts | 131° |
| 2026-05-06 10:39 | 24.44753 | 54.63547 | 66 ft | 2 kts | 131° |
| 2026-05-06 10:39 | 24.44736 | 54.63571 | 69 ft | 6 kts | 128° |
| 2026-05-06 10:40 | 24.44709 | 54.63609 | 67 ft | 7 kts | 128° |
| 2026-05-06 10:40 | 24.44687 | 54.63640 | 72 ft | 5 kts | 128° |
| 2026-05-06 10:40 | 24.44662 | 54.63676 | 71 ft | 7 kts | 128° |
| 2026-05-06 10:40 | 24.44617 | 54.63683 | 74 ft | 8 kts | 200° |
| 2026-05-06 10:41 | 24.44584 | 54.63661 | 74 ft | 0 kts | 214° |
| 2026-05-06 10:45 | 24.44574 | 54.63653 | 67 ft | 3 kts | 214° |
| 2026-05-06 10:45 | 24.44550 | 54.63634 | 74 ft | 5 kts | 217° |
| 2026-05-06 10:46 | 24.44516 | 54.63605 | 72 ft | 7 kts | 217° |
| 2026-05-06 10:46 | 24.44471 | 54.63568 | 75 ft | 9 kts | 217° |
| 2026-05-06 10:46 | 24.44416 | 54.63560 | 71 ft | 9 kts | 138° |
| 2026-05-06 10:46 | 24.44366 | 54.63626 | 67 ft | 16 kts | 129° |
| 2026-05-06 10:47 | 24.44198 | 54.63857 | 71 ft | 68 kts | 128° |
| 2026-05-06 10:47 | 24.43783 | 54.64446 | 66 ft | 125 kts | 128° |
| 2026-05-06 10:47 | 24.43150 | 54.65338 | 74 ft | 169 kts | 128° |
| 2026-05-06 10:47 | 24.42379 | 54.66433 | 362 ft | 181 kts | 128° |
| 2026-05-06 10:48 | 24.41596 | 54.67540 | 868 ft | 189 kts | 131° |
| 2026-05-06 10:48 | 24.40772 | 54.68696 | 1302 ft | 195 kts | 131° |
| 2026-05-06 10:48 | 24.39931 | 54.69868 | 1818 ft | 195 kts | 130° |
| 2026-05-06 10:48 | 24.39078 | 54.71065 | 2058 ft | 205 kts | 129° |
| 2026-05-06 10:49 | 24.38173 | 54.72332 | 2168 ft | 216 kts | 130° |
| 2026-05-06 10:49 | 24.37218 | 54.73672 | 2276 ft | 231 kts | 130° |
| 2026-05-06 10:49 | 24.36200 | 54.75103 | 2524 ft | 241 kts | 129° |
| 2026-05-06 10:49 | 24.35160 | 54.76568 | 2811 ft | 246 kts | 130° |
| 2026-05-06 10:50 | 24.34115 | 54.78040 | 3255 ft | 246 kts | 129° |
| 2026-05-06 10:50 | 24.33059 | 54.79524 | 3689 ft | 247 kts | 129° |
| 2026-05-06 10:50 | 24.32042 | 54.80960 | 4098 ft | 251 kts | 127° |
| 2026-05-06 10:50 | 24.31328 | 54.82766 | 4254 ft | 268 kts | 99° |
| 2026-05-06 10:51 | 24.31529 | 54.84809 | 4607 ft | 277 kts | 70° |
| 2026-05-06 10:51 | 24.32644 | 54.86529 | 5048 ft | 282 kts | 40° |
| 2026-05-06 10:51 | 24.34402 | 54.87478 | 5512 ft | 285 kts | 17° |
| 2026-05-06 10:51 | 24.36315 | 54.88108 | 5982 ft | 287 kts | 18° |
| 2026-05-06 10:52 | 24.38219 | 54.88735 | 6438 ft | 288 kts | 18° |
| 2026-05-06 10:52 | 24.40153 | 54.89376 | 6910 ft | 290 kts | 19° |
| 2026-05-06 10:52 | 24.42104 | 54.90021 | 7012 ft | 291 kts | 18° |
| 2026-05-06 10:52 | 24.44034 | 54.90661 | 7024 ft | 290 kts | 19° |
| 2026-05-06 10:53 | 24.45965 | 54.91303 | 7016 ft | 290 kts | 18° |
| 2026-05-06 10:53 | 24.47897 | 54.91928 | 7016 ft | 290 kts | 13° |
| 2026-05-06 10:53 | 24.49905 | 54.92115 | 7024 ft | 291 kts | 356° |
| 2026-05-06 10:53 | 24.51894 | 54.91634 | 7361 ft | 295 kts | 340° |
| 2026-05-06 10:54 | 24.53824 | 54.90843 | 7861 ft | 298 kts | 341° |
| 2026-05-06 10:54 | 24.55772 | 54.90060 | 7989 ft | 299 kts | 341° |
| 2026-05-06 10:54 | 24.57729 | 54.89279 | 8024 ft | 299 kts | 341° |
| 2026-05-06 10:54 | 24.59671 | 54.88503 | 8025 ft | 297 kts | 341° |
| 2026-05-06 10:55 | 24.61614 | 54.87726 | 8038 ft | 297 kts | 341° |
| 2026-05-06 10:55 | 24.63559 | 54.86947 | 8289 ft | 298 kts | 341° |
| 2026-05-06 10:55 | 24.65511 | 54.86163 | 8827 ft | 299 kts | 341° |
| 2026-05-06 10:55 | 24.67442 | 54.85386 | 9304 ft | 300 kts | 341° |
| 2026-05-06 10:56 | 24.69405 | 54.84594 | 9788 ft | 302 kts | 342° |
| 2026-05-06 10:56 | 24.71385 | 54.83793 | 10140 ft | 308 kts | 341° |
| 2026-05-06 10:56 | 24.73359 | 54.82744 | 10249 ft | 324 kts | 327° |
| 2026-05-06 10:56 | 24.75088 | 54.81071 | 10370 ft | 339 kts | 310° |
| 2026-05-06 10:57 | 24.76374 | 54.78835 | 10492 ft | 354 kts | 294° |
| 2026-05-06 10:57 | 24.77297 | 54.76272 | 10608 ft | 367 kts | 291° |
| 2026-05-06 10:57 | 24.78236 | 54.73604 | 10730 ft | 379 kts | 292° |
| 2026-05-06 10:57 | 24.79200 | 54.70866 | 10933 ft | 388 kts | 292° |
| 2026-05-06 10:58 | 24.80209 | 54.68098 | 11321 ft | 390 kts | 296° |
| 2026-05-06 10:58 | 24.81578 | 54.65553 | 11713 ft | 391 kts | 308° |
| 2026-05-06 10:58 | 24.83253 | 54.63189 | 12144 ft | 392 kts | 309° |
| 2026-05-06 10:58 | 24.84941 | 54.60820 | 12561 ft | 394 kts | 309° |
| 2026-05-06 10:59 | 24.86638 | 54.58435 | 12974 ft | 396 kts | 309° |
| 2026-05-06 10:59 | 24.88340 | 54.56037 | 13393 ft | 399 kts | 309° |
| 2026-05-06 10:59 | 24.90049 | 54.53620 | 13781 ft | 401 kts | 309° |
| 2026-05-06 10:59 | 24.91765 | 54.51187 | 14155 ft | 403 kts | 309° |
| 2026-05-06 11:00 | 24.93486 | 54.48744 | 14534 ft | 405 kts | 308° |
| 2026-05-06 11:00 | 24.95221 | 54.46280 | 14904 ft | 408 kts | 309° |
| 2026-05-06 11:00 | 24.96970 | 54.43804 | 15264 ft | 410 kts | 309° |
| 2026-05-06 11:00 | 24.98730 | 54.41313 | 15646 ft | 413 kts | 309° |
| 2026-05-06 11:01 | 25.00498 | 54.38808 | 16020 ft | 415 kts | 308° |
| 2026-05-06 11:01 | 25.02273 | 54.36286 | 16442 ft | 417 kts | 308° |
| 2026-05-06 11:01 | 25.04058 | 54.33751 | 16871 ft | 418 kts | 308° |
| 2026-05-06 11:01 | 25.05844 | 54.31216 | 17248 ft | 421 kts | 308° |
| 2026-05-06 11:02 | 25.07621 | 54.28691 | 17622 ft | 423 kts | 308° |
| 2026-05-06 11:02 | 25.09431 | 54.26117 | 17990 ft | 425 kts | 308° |
| 2026-05-06 11:02 | 25.11243 | 54.23536 | 18329 ft | 427 kts | 307° |
| 2026-05-06 11:02 | 25.13066 | 54.20940 | 18663 ft | 428 kts | 307° |
| 2026-05-06 11:03 | 25.14892 | 54.18336 | 19001 ft | 429 kts | 307° |
| 2026-05-06 11:03 | 25.16720 | 54.15730 | 19329 ft | 430 kts | 307° |
| 2026-05-06 11:03 | 25.18552 | 54.13116 | 19684 ft | 430 kts | 307° |
| 2026-05-06 11:03 | 25.20386 | 54.10504 | 19967 ft | 432 kts | 307° |
| 2026-05-06 11:04 | 25.22231 | 54.07871 | 20279 ft | 434 kts | 307° |
| 2026-05-06 11:04 | 25.24077 | 54.05234 | 20599 ft | 434 kts | 307° |
| 2026-05-06 11:04 | 25.25932 | 54.02585 | 20903 ft | 436 kts | 307° |
| 2026-05-06 11:04 | 25.27788 | 53.99933 | 21177 ft | 438 kts | 307° |
| 2026-05-06 11:05 | 25.29651 | 53.97266 | 21458 ft | 439 kts | 307° |
| 2026-05-06 11:05 | 25.31520 | 53.94591 | 21731 ft | 440 kts | 307° |
| 2026-05-06 11:05 | 25.33391 | 53.91912 | 22002 ft | 441 kts | 307° |
| 2026-05-06 11:05 | 25.35269 | 53.89219 | 22281 ft | 442 kts | 307° |
| 2026-05-06 11:06 | 25.37151 | 53.86520 | 22558 ft | 444 kts | 306° |
| 2026-05-06 11:06 | 25.39039 | 53.83814 | 22840 ft | 445 kts | 306° |
| 2026-05-06 11:06 | 25.40931 | 53.81101 | 23119 ft | 446 kts | 306° |
| 2026-05-06 11:06 | 25.42831 | 53.78376 | 23393 ft | 447 kts | 306° |
| 2026-05-06 11:07 | 25.44708 | 53.75677 | 23621 ft | 448 kts | 306° |
| 2026-05-06 11:07 | 25.46613 | 53.72938 | 23845 ft | 449 kts | 306° |
| 2026-05-06 11:07 | 25.48526 | 53.70185 | 24072 ft | 451 kts | 306° |
| 2026-05-06 11:07 | 25.50435 | 53.67436 | 24299 ft | 452 kts | 306° |
| 2026-05-06 11:08 | 25.52355 | 53.64670 | 24513 ft | 453 kts | 306° |
| 2026-05-06 11:08 | 25.54270 | 53.61908 | 24734 ft | 453 kts | 306° |
| 2026-05-06 11:08 | 25.56194 | 53.59134 | 24961 ft | 454 kts | 306° |
| 2026-05-06 11:08 | 25.58117 | 53.56361 | 25179 ft | 455 kts | 305° |
| 2026-05-06 11:09 | 25.59391 | 53.54519 | 25323 ft | 455 kts | 305° |
| 2026-05-06 11:09 | 25.61323 | 53.51726 | 25550 ft | 456 kts | 305° |
| 2026-05-06 11:09 | 25.63257 | 53.48928 | 25750 ft | 457 kts | 305° |
| 2026-05-06 11:09 | 25.65190 | 53.46129 | 25974 ft | 458 kts | 305° |
| 2026-05-06 11:10 | 25.67132 | 53.43319 | 26195 ft | 459 kts | 305° |
| 2026-05-06 11:10 | 25.69076 | 53.40507 | 26410 ft | 460 kts | 305° |
| 2026-05-06 11:10 | 25.71021 | 53.37694 | 26715 ft | 458 kts | 304° |
| 2026-05-06 11:10 | 25.72961 | 53.34886 | 27065 ft | 456 kts | 304° |
| 2026-05-06 11:11 | 25.74887 | 53.32095 | 27392 ft | 454 kts | 304° |
| 2026-05-06 11:11 | 25.76803 | 53.29314 | 27718 ft | 453 kts | 304° |
| 2026-05-06 11:11 | 25.78712 | 53.26541 | 28044 ft | 451 kts | 304° |
| 2026-05-06 11:11 | 25.80610 | 53.23780 | 28347 ft | 450 kts | 303° |
| 2026-05-06 11:12 | 25.82477 | 53.21059 | 28649 ft | 449 kts | 303° |
| 2026-05-06 11:12 | 25.84250 | 53.18174 | 28940 ft | 444 kts | 296° |
| 2026-05-06 11:12 | 25.85597 | 53.15158 | 29227 ft | 440 kts | 291° |
| 2026-05-06 11:12 | 25.86848 | 53.12069 | 29526 ft | 439 kts | 291° |
| 2026-05-06 11:13 | 25.88100 | 53.08983 | 29829 ft | 437 kts | 290° |
| 2026-05-06 11:13 | 25.89351 | 53.05908 | 30083 ft | 436 kts | 291° |
| 2026-05-06 11:13 | 25.90599 | 53.02844 | 30317 ft | 435 kts | 291° |
| 2026-05-06 11:13 | 25.91847 | 52.99778 | 30552 ft | 434 kts | 290° |
| 2026-05-06 11:14 | 25.93089 | 52.96718 | 30760 ft | 434 kts | 290° |
| 2026-05-06 11:14 | 25.94326 | 52.93664 | 30965 ft | 433 kts | 290° |
| 2026-05-06 11:14 | 25.95562 | 52.90615 | 31196 ft | 432 kts | 290° |
| 2026-05-06 11:14 | 25.96796 | 52.87571 | 31422 ft | 431 kts | 290° |
| 2026-05-06 11:15 | 25.98012 | 52.84571 | 31646 ft | 430 kts | 290° |
| 2026-05-06 11:15 | 25.99241 | 52.81535 | 31788 ft | 430 kts | 290° |
| 2026-05-06 11:15 | 26.00465 | 52.78504 | 31825 ft | 431 kts | 290° |
| 2026-05-06 11:16 | 26.02953 | 52.72438 | 31827 ft | 431 kts | 291° |
| 2026-05-06 11:16 | 26.05635 | 52.66459 | 31830 ft | 432 kts | 293° |
| 2026-05-06 11:17 | 26.08375 | 52.60518 | 31827 ft | 432 kts | 293° |
| 2026-05-06 11:17 | 26.11095 | 52.54557 | 31823 ft | 431 kts | 292° |
| 2026-05-06 11:18 | 26.13778 | 52.48582 | 31820 ft | 432 kts | 292° |
| 2026-05-06 11:18 | 26.16463 | 52.42601 | 31824 ft | 432 kts | 292° |
| 2026-05-06 11:19 | 26.19138 | 52.36655 | 31842 ft | 432 kts | 292° |
| 2026-05-06 11:19 | 26.21829 | 52.30662 | 31840 ft | 432 kts | 292° |
| 2026-05-06 11:20 | 26.24478 | 52.24654 | 31845 ft | 431 kts | 291° |
| 2026-05-06 11:20 | 26.27063 | 52.18632 | 31848 ft | 431 kts | 291° |
| 2026-05-06 11:21 | 26.29645 | 52.12614 | 31847 ft | 431 kts | 291° |
| 2026-05-06 11:21 | 26.32223 | 52.06631 | 31863 ft | 431 kts | 291° |
| 2026-05-06 11:22 | 26.34823 | 52.00619 | 31863 ft | 430 kts | 291° |
| 2026-05-06 11:22 | 26.37415 | 51.94615 | 31863 ft | 428 kts | 289° |
| 2026-05-06 11:23 | 26.39527 | 51.88450 | 31859 ft | 425 kts | 286° |
| 2026-05-06 11:23 | 26.41600 | 51.82268 | 31855 ft | 425 kts | 286° |
| 2026-05-06 11:24 | 26.43675 | 51.76084 | 31849 ft | 425 kts | 286° |
| 2026-05-06 11:24 | 26.45743 | 51.69894 | 31863 ft | 425 kts | 286° |
| 2026-05-06 11:25 | 26.47784 | 51.63756 | 31857 ft | 424 kts | 285° |
| 2026-05-06 11:25 | 26.49836 | 51.57600 | 31854 ft | 423 kts | 286° |
| 2026-05-06 11:26 | 26.51895 | 51.51435 | 31846 ft | 424 kts | 285° |
| 2026-05-06 11:26 | 26.53947 | 51.45260 | 31841 ft | 424 kts | 285° |
| 2026-05-06 11:27 | 26.55992 | 51.39087 | 31838 ft | 424 kts | 285° |
| 2026-05-06 11:27 | 26.58037 | 51.32906 | 31863 ft | 423 kts | 285° |
| 2026-05-06 11:28 | 26.60079 | 51.26738 | 31857 ft | 423 kts | 285° |
| 2026-05-06 11:28 | 26.62122 | 51.20574 | 31854 ft | 423 kts | 285° |
| 2026-05-06 11:29 | 26.64163 | 51.14410 | 31853 ft | 423 kts | 285° |
| 2026-05-06 11:29 | 26.66207 | 51.08240 | 31850 ft | 423 kts | 285° |
| 2026-05-06 11:30 | 26.68227 | 51.02109 | 31856 ft | 423 kts | 285° |
| 2026-05-06 11:30 | 26.70225 | 50.95927 | 31868 ft | 422 kts | 284° |
| 2026-05-06 11:31 | 26.72194 | 50.89745 | 31872 ft | 422 kts | 284° |
| 2026-05-06 11:31 | 26.74163 | 50.83556 | 31868 ft | 422 kts | 284° |
| 2026-05-06 11:32 | 26.76131 | 50.77381 | 31861 ft | 421 kts | 284° |
| 2026-05-06 11:32 | 26.78084 | 50.71243 | 31866 ft | 421 kts | 284° |
| 2026-05-06 11:33 | 26.80326 | 50.65168 | 31858 ft | 428 kts | 295° |
| 2026-05-06 11:33 | 26.83977 | 50.59788 | 31874 ft | 435 kts | 302° |
| 2026-05-06 11:34 | 26.87810 | 50.54541 | 31862 ft | 435 kts | 302° |
| 2026-05-06 11:34 | 26.91632 | 50.49288 | 31860 ft | 435 kts | 303° |
| 2026-05-06 11:35 | 26.95677 | 50.44200 | 31861 ft | 439 kts | 306° |
| 2026-05-06 11:35 | 26.99938 | 50.39290 | 31879 ft | 439 kts | 307° |
| 2026-05-06 11:36 | 27.01750 | 50.37213 | 31876 ft | 439 kts | 307° |
| 2026-05-06 11:46 | 27.05421 | 50.32925 | 31865 ft | 423 kts | 306° |
| 2026-05-06 11:46 | 27.07406 | 50.30560 | 31849 ft | 410 kts | 305° |
| 2026-05-06 11:46 | 27.08600 | 50.29122 | 31850 ft | 404 kts | 304° |
| 2026-05-06 11:49 | 27.11047 | 50.26135 | 31853 ft | 408 kts | 304° |
| 2026-05-06 11:49 | 27.11166 | 50.25989 | 31854 ft | 409 kts | 304° |
| 2026-05-06 11:54 | 27.14014 | 50.22504 | 31863 ft | 416 kts | 304° |
| 2026-05-06 11:54 | 27.14100 | 50.22399 | 31864 ft | 416 kts | 304° |
| 2026-05-06 11:55 | 27.15295 | 50.20955 | 31772 ft | 421 kts | 307° |
| 2026-05-06 11:56 | 27.17113 | 50.19141 | 31855 ft | 423 kts | 314° |
| 2026-05-06 11:56 | 27.17816 | 50.18548 | 31867 ft | 425 kts | 315° |
| 2026-05-06 11:57 | 27.21751 | 50.15321 | 31851 ft | 423 kts | 315° |
| 2026-05-06 11:57 | 27.23573 | 50.13822 | 31847 ft | 423 kts | 315° |
| 2026-05-06 11:58 | 27.27533 | 50.10542 | 31853 ft | 426 kts | 315° |
| 2026-05-06 11:58 | 27.29325 | 50.09057 | 31854 ft | 426 kts | 315° |
| 2026-05-06 12:01 | 27.33970 | 50.05211 | 31847 ft | 428 kts | 315° |
| 2026-05-06 12:01 | 27.36428 | 50.03169 | 31848 ft | 428 kts | 315° |
| 2026-05-06 12:03 | 27.39776 | 50.00302 | 31853 ft | 425 kts | 313° |
| 2026-05-06 12:03 | 27.44479 | 49.96139 | 31855 ft | 435 kts | 313° |
| 2026-05-06 12:04 | 27.47979 | 49.93010 | 31855 ft | 442 kts | 313° |
| 2026-05-06 12:04 | 27.50615 | 49.90673 | 31853 ft | 435 kts | 313° |
| 2026-05-06 12:05 | 27.55318 | 49.86547 | 31859 ft | 431 kts | 313° |
| 2026-05-06 12:05 | 27.60093 | 49.82319 | 31860 ft | 441 kts | 313° |
| 2026-05-06 12:06 | 27.64946 | 49.78024 | 31860 ft | 445 kts | 313° |
| 2026-05-06 12:06 | 27.69823 | 49.73722 | 31861 ft | 445 kts | 313° |
| 2026-05-06 12:07 | 27.74669 | 49.69442 | 31860 ft | 445 kts | 313° |
| 2026-05-06 12:07 | 27.79547 | 49.65120 | 31860 ft | 445 kts | 313° |
| 2026-05-06 12:08 | 27.84418 | 49.60776 | 31881 ft | 446 kts | 313° |
| 2026-05-06 12:08 | 27.89276 | 49.56430 | 31880 ft | 445 kts | 313° |
| 2026-05-06 12:09 | 27.93027 | 49.53071 | 31874 ft | 445 kts | 313° |
| 2026-05-06 12:09 | 27.96289 | 49.50149 | 31876 ft | 445 kts | 313° |
| 2026-05-06 12:10 | 28.01157 | 49.45786 | 31868 ft | 449 kts | 313° |
| 2026-05-06 12:10 | 28.03166 | 49.43984 | 31863 ft | 446 kts | 312° |
| 2026-05-06 12:11 | 28.05521 | 49.41861 | 31860 ft | 445 kts | 312° |
| 2026-05-06 12:11 | 28.10330 | 49.37476 | 31860 ft | 443 kts | 312° |
| 2026-05-06 12:12 | 28.12511 | 49.35478 | 31860 ft | 443 kts | 312° |
| 2026-05-06 12:17 | 28.14157 | 49.33968 | 31864 ft | 443 kts | 312° |
| 2026-05-06 12:18 | 28.18957 | 49.29565 | 31882 ft | 444 kts | 311° |
| 2026-05-06 12:18 | 28.23757 | 49.25171 | 31879 ft | 444 kts | 311° |
| 2026-05-06 12:19 | 28.28562 | 49.20771 | 31873 ft | 444 kts | 311° |
| 2026-05-06 12:19 | 28.33368 | 49.16366 | 31869 ft | 444 kts | 311° |
| 2026-05-06 12:20 | 28.38172 | 49.11954 | 31880 ft | 444 kts | 311° |
| 2026-05-06 12:20 | 28.43240 | 49.07842 | 31885 ft | 450 kts | 316° |
| 2026-05-06 12:21 | 28.48411 | 49.03887 | 31870 ft | 451 kts | 316° |
| 2026-05-06 12:21 | 28.53616 | 48.99907 | 31879 ft | 451 kts | 316° |
| 2026-05-06 12:22 | 28.58807 | 48.95921 | 31883 ft | 450 kts | 316° |
| 2026-05-06 12:22 | 28.63994 | 48.91923 | 31874 ft | 450 kts | 316° |
| 2026-05-06 12:23 | 28.69181 | 48.87924 | 31875 ft | 450 kts | 316° |
| 2026-05-06 12:23 | 28.74374 | 48.83926 | 31883 ft | 450 kts | 316° |
| 2026-05-06 12:24 | 28.79560 | 48.79931 | 31883 ft | 450 kts | 316° |
| 2026-05-06 12:24 | 28.84753 | 48.75937 | 31881 ft | 450 kts | 316° |
| 2026-05-06 12:25 | 28.89952 | 48.71956 | 31901 ft | 450 kts | 316° |
| 2026-05-06 12:25 | 28.95147 | 48.67980 | 31892 ft | 449 kts | 316° |
| 2026-05-06 12:26 | 29.00341 | 48.63994 | 31884 ft | 449 kts | 316° |
| 2026-05-06 12:26 | 29.05523 | 48.60000 | 31879 ft | 450 kts | 316° |
| 2026-05-06 12:27 | 29.10682 | 48.56026 | 31884 ft | 450 kts | 316° |